Time;durP1;ratioP1;P1;durP2;ratioP2;P2;SDS_P1;SDS_P2;PMS_P1;PMS_P2;Temp;Humidity;BMP_temperature;BMP_pressure;BME280_temperature;BME280_humidity;BME280_pressure;Samples;Min_cycle;Max_cycle;Signal;HPM_P1;HPM_P2
2022/06/03 00:00:20;;;;;;;4.13;3.73;;;13.50;99.90;;;;;;5025486;28;20997;-71
2022/06/03 00:03:16;;;;;;;4.13;3.43;;;13.50;99.90;;;;;;5027221;28;21862;-71
2022/06/03 00:06:10;;;;;;;7.40;3.83;;;13.50;99.90;;;;;;5023588;28;21025;-71
2022/06/03 00:09:15;;;;;;;4.43;3.70;;;13.50;99.90;;;;;;5027834;28;20554;-71
2022/06/03 00:12:20;;;;;;;7.90;4.20;;;13.40;99.90;;;;;;4979395;28;20838;-71
2022/06/03 00:15:04;;;;;;;4.40;3.90;;;13.40;99.90;;;;;;5033488;28;20789;-71
2022/06/03 00:17:55;;;;;;;6.03;5.27;;;13.40;99.90;;;;;;5025050;28;20441;-70
2022/06/03 00:20:49;;;;;;;3.80;3.37;;;13.30;99.90;;;;;;5030416;28;20969;-71
2022/06/03 00:23:42;;;;;;;4.00;3.60;;;13.30;99.90;;;;;;5023605;28;20918;-71
2022/06/03 00:26:29;;;;;;;5.50;3.50;;;13.30;99.90;;;;;;5021219;28;20461;-70
2022/06/03 00:29:15;;;;;;;9.57;3.87;;;13.30;99.90;;;;;;5026451;28;21169;-70
2022/06/03 00:32:05;;;;;;;3.80;3.37;;;13.40;99.90;;;;;;5029328;28;20453;-70
2022/06/03 00:34:58;;;;;;;3.50;3.20;;;13.40;99.90;;;;;;5031102;28;20453;-70
2022/06/03 00:37:35;;;;;;;7.73;3.80;;;13.40;99.90;;;;;;5024152;28;20952;-70
2022/06/03 00:40:19;;;;;;;7.00;2.97;;;13.40;99.90;;;;;;5025442;28;20466;-70
2022/06/03 00:43:00;;;;;;;4.20;3.33;;;13.40;99.90;;;;;;5034981;28;20431;-70
2022/06/03 00:45:41;;;;;;;6.07;4.20;;;13.40;99.90;;;;;;5029755;28;20470;-70
2022/06/03 00:48:31;;;;;;;4.97;4.00;;;13.40;99.90;;;;;;5027178;28;20463;-70
2022/06/03 00:51:15;;;;;;;3.97;3.17;;;13.40;99.90;;;;;;5027969;28;20606;-70
2022/06/03 00:54:06;;;;;;;5.57;4.50;;;13.40;99.90;;;;;;5032686;28;20542;-70
2022/06/03 00:57:18;;;;;;;6.57;3.70;;;13.40;99.90;;;;;;5030625;28;21068;-70
2022/06/03 01:00:08;;;;;;;6.70;4.67;;;13.30;99.90;;;;;;4992144;28;20435;-71
2022/06/03 01:03:10;;;;;;;3.37;3.07;;;13.10;99.90;;;;;;5028799;28;20488;-70
2022/06/03 01:06:03;;;;;;;6.50;4.47;;;12.80;99.90;;;;;;5022070;28;20951;-70
2022/06/03 01:08:48;;;;;;;3.17;2.87;;;12.50;99.90;;;;;;5013661;28;20983;-70
2022/06/03 01:11:53;;;;;;;5.30;3.40;;;12.30;99.90;;;;;;5029376;28;20498;-72
2022/06/03 01:14:31;;;;;;;5.00;3.60;;;12.40;99.90;;;;;;5025215;28;21345;-70
2022/06/03 01:17:07;;;;;;;6.47;3.43;;;12.60;99.90;;;;;;5028079;28;20472;-70
2022/06/03 01:19:55;;;;;;;3.53;3.20;;;12.40;99.90;;;;;;5028886;28;20462;-70
2022/06/03 01:22:49;;;;;;;8.77;3.10;;;12.50;99.90;;;;;;5032658;28;20483;-70
2022/06/03 01:25:41;;;;;;;6.13;3.70;;;12.60;99.90;;;;;;5026404;28;20856;-70
2022/06/03 01:28:38;;;;;;;3.07;2.77;;;12.50;99.90;;;;;;5015290;28;20460;-70
2022/06/03 01:31:38;;;;;;;3.47;3.07;;;12.50;99.90;;;;;;4986104;28;20826;-70
2022/06/03 01:34:20;;;;;;;4.20;3.47;;;12.50;99.90;;;;;;4996364;28;20973;-70
2022/06/03 01:37:02;;;;;;;5.73;3.63;;;12.50;99.90;;;;;;5036004;28;20541;-70
2022/06/03 01:39:44;;;;;;;3.33;3.00;;;12.50;99.90;;;;;;5032326;28;20467;-70
2022/06/03 01:42:41;;;;;;;5.40;4.40;;;12.50;99.90;;;;;;5032039;28;20561;-70
2022/06/03 01:45:54;;;;;;;5.20;3.70;;;12.30;99.90;;;;;;5029612;28;20442;-71
2022/06/03 01:48:37;;;;;;;3.93;2.67;;;12.30;99.90;;;;;;4992080;28;20514;-70
2022/06/03 01:51:27;;;;;;;4.70;3.73;;;12.30;99.90;;;;;;5031009;28;20907;-70
2022/06/03 01:54:37;;;;;;;11.00;4.50;;;12.30;99.90;;;;;;5032512;28;20458;-70
2022/06/03 01:57:23;;;;;;;4.43;3.40;;;12.40;99.90;;;;;;5033895;28;20441;-70
2022/06/03 02:00:22;;;;;;;4.57;3.50;;;12.40;99.90;;;;;;5017212;28;20877;-69
2022/06/03 02:03:14;;;;;;;5.43;4.00;;;12.40;99.90;;;;;;5033611;28;20434;-72
2022/06/03 02:06:11;;;;;;;6.40;3.90;;;12.40;99.90;;;;;;5026780;28;20602;-69
2022/06/03 02:09:05;;;;;;;5.43;3.63;;;12.40;99.90;;;;;;5032168;28;20453;-70
2022/06/03 02:12:03;;;;;;;5.97;4.10;;;12.30;99.90;;;;;;5032410;28;20476;-71
2022/06/03 02:15:12;;;;;;;3.87;3.33;;;12.10;99.90;;;;;;5036036;28;20440;-70
2022/06/03 02:18:11;;;;;;;3.70;3.37;;;12.10;99.90;;;;;;5032687;28;20782;-70
2022/06/03 02:21:11;;;;;;;4.10;2.57;;;12.10;99.90;;;;;;5026713;28;20922;-70
2022/06/03 02:24:03;;;;;;;15.33;4.13;;;12.10;99.90;;;;;;5025302;28;20434;-70
2022/06/03 02:27:18;;;;;;;5.53;3.90;;;12.10;99.90;;;;;;5031849;28;20460;-70
2022/06/03 02:30:27;;;;;;;4.70;4.17;;;12.10;99.90;;;;;;5001885;28;20463;-70
2022/06/03 02:33:35;;;;;;;4.80;3.97;;;12.00;99.90;;;;;;5016429;28;20945;-70
2022/06/03 02:36:54;;;;;;;4.70;4.07;;;12.00;99.90;;;;;;5007738;28;20448;-70
2022/06/03 02:39:45;;;;;;;4.47;3.00;;;12.00;99.90;;;;;;5027868;28;20463;-70
2022/06/03 02:42:33;;;;;;;7.03;4.40;;;12.00;99.90;;;;;;4992559;28;20454;-70
2022/06/03 02:45:30;;;;;;;4.87;3.53;;;12.00;99.90;;;;;;5024467;28;20491;-70
2022/06/03 02:48:25;;;;;;;5.00;3.70;;;12.00;99.90;;;;;;5008305;28;20431;-70
2022/06/03 02:51:09;;;;;;;5.40;3.47;;;11.90;99.90;;;;;;5027739;28;20480;-69
2022/06/03 02:54:33;;;;;;;5.70;4.13;;;12.00;99.90;;;;;;5028317;28;20466;-70
2022/06/03 02:57:47;;;;;;;4.93;3.53;;;11.90;99.90;;;;;;5021904;28;21343;-70
2022/06/03 03:00:20;;;;;;;3.17;2.87;;;11.90;99.90;;;;;;5014975;28;20459;-70
2022/06/03 03:03:24;;;;;;;5.20;3.90;;;11.90;99.90;;;;;;5032209;28;20434;-69
2022/06/03 03:06:11;;;;;;;5.27;3.80;;;11.90;99.90;;;;;;5027926;28;20792;-69
2022/06/03 03:09:16;;;;;;;3.67;3.30;;;11.90;99.90;;;;;;5024566;28;20517;-69
2022/06/03 03:12:07;;;;;;;5.23;3.67;;;11.90;99.90;;;;;;4994492;22;21014;-70
2022/06/03 03:15:06;;;;;;;5.93;4.50;;;11.90;99.90;;;;;;5074693;28;20489;-70
2022/06/03 03:17:55;;;;;;;5.33;4.30;;;11.80;99.90;;;;;;5073798;28;20435;-71
2022/06/03 03:20:57;;;;;;;6.43;4.77;;;11.70;99.90;;;;;;5066267;28;20437;-70
2022/06/03 03:23:47;;;;;;;6.43;5.13;;;11.80;99.90;;;;;;5066038;28;20456;-72
2022/06/03 03:26:22;;;;;;;4.93;3.50;;;11.70;99.90;;;;;;5063078;28;20536;-71
2022/06/03 03:29:11;;;;;;;5.00;3.00;;;11.60;99.90;;;;;;5060680;28;20434;-72
2022/06/03 03:31:52;;;;;;;8.90;4.80;;;11.60;99.90;;;;;;5071972;28;20902;-71
2022/06/03 03:34:56;;;;;;;4.27;3.57;;;11.70;99.90;;;;;;5072591;28;21054;-71
2022/06/03 03:37:53;;;;;;;4.30;3.83;;;11.70;99.90;;;;;;5061375;28;20433;-72
2022/06/03 03:41:01;;;;;;;5.33;3.70;;;11.60;99.90;;;;;;5065942;28;20462;-71
2022/06/03 03:43:52;;;;;;;6.57;4.13;;;11.70;99.90;;;;;;5034944;28;20429;-71
2022/06/03 03:46:57;;;;;;;3.47;3.17;;;11.70;99.90;;;;;;5080553;28;20472;-71
2022/06/03 03:49:47;;;;;;;8.17;4.20;;;11.70;99.90;;;;;;5074250;28;20425;-71
2022/06/03 03:52:53;;;;;;;6.33;4.13;;;11.80;99.90;;;;;;5081689;28;20571;-72
2022/06/03 03:55:56;;;;;;;15.13;7.27;;;11.90;99.90;;;;;;5071499;28;21049;-71
2022/06/03 03:59:07;;;;;;;6.17;5.17;;;11.90;99.90;;;;;;5053378;28;20467;-72
2022/06/03 04:02:30;;;;;;;6.23;4.30;;;11.90;99.90;;;;;;5028919;28;21097;-70
2022/06/03 04:05:47;;;;;;;4.53;3.60;;;11.80;99.90;;;;;;5009190;28;20474;-70
2022/06/03 04:08:42;;;;;;;5.43;3.93;;;11.80;99.90;;;;;;5038068;28;20440;-70
2022/06/03 04:11:38;;;;;;;4.57;3.83;;;12.00;99.90;;;;;;5076414;28;20854;-70
2022/06/03 04:14:53;;;;;;;4.40;3.40;;;12.00;99.90;;;;;;5065592;28;20462;-73
2022/06/03 04:17:53;;;;;;;5.30;4.40;;;12.00;99.90;;;;;;5063082;28;20742;-72
2022/06/03 04:20:56;;;;;;;5.33;3.47;;;12.00;99.90;;;;;;5067847;28;20464;-71
2022/06/03 04:23:49;;;;;;;4.80;4.23;;;12.00;99.90;;;;;;5054652;28;20457;-71
2022/06/03 04:26:41;;;;;;;4.67;3.47;;;11.90;99.90;;;;;;5076749;28;20978;-72
2022/06/03 04:29:48;;;;;;;4.27;3.70;;;12.00;99.90;;;;;;5072632;28;20436;-71
2022/06/03 04:33:24;;;;;;;6.70;4.00;;;12.00;99.90;;;;;;5077521;28;20555;-70
2022/06/03 04:36:32;;;;;;;7.77;4.07;;;12.00;99.90;;;;;;5013547;28;20438;-70
2022/06/03 04:39:35;;;;;;;4.60;3.93;;;12.00;99.90;;;;;;5058344;28;20435;-70
2022/06/03 04:42:41;;;;;;;4.13;3.30;;;12.00;99.90;;;;;;5078714;28;20445;-70
2022/06/03 04:45:50;;;;;;;5.40;2.70;;;12.00;99.90;;;;;;5070099;28;20468;-70
2022/06/03 04:49:00;;;;;;;4.73;3.03;;;12.10;99.90;;;;;;5077130;28;20490;-71
2022/06/03 04:52:08;;;;;;;7.07;4.43;;;12.20;99.90;;;;;;5073078;28;20482;-70
2022/06/03 04:55:19;;;;;;;4.70;3.40;;;12.30;99.90;;;;;;5079270;28;20450;-71
2022/06/03 04:58:16;;;;;;;5.70;3.67;;;12.40;99.90;;;;;;5081646;28;20457;-72
2022/06/03 05:01:27;;;;;;;4.43;3.93;;;12.60;99.90;;;;;;5072022;28;20596;-70
2022/06/03 05:04:32;;;;;;;6.47;3.10;;;12.80;99.90;;;;;;5078134;28;20440;-71
2022/06/03 05:07:41;;;;;;;3.73;3.40;;;12.90;99.90;;;;;;5081882;28;20433;-73
2022/06/03 05:10:59;;;;;;;3.40;2.70;;;13.00;99.90;;;;;;5067383;28;20491;-72
2022/06/03 05:14:09;;;;;;;3.73;2.83;;;13.10;99.90;;;;;;5020597;28;20477;-69
2022/06/03 05:17:07;;;;;;;2.70;1.83;;;13.40;99.90;;;;;;5077855;28;20549;-70
2022/06/03 05:20:22;;;;;;;5.03;3.53;;;13.80;99.90;;;;;;5079133;28;20470;-69
2022/06/03 05:23:07;;;;;;;4.40;3.80;;;14.30;99.90;;;;;;5002300;28;20607;-71
2022/06/03 05:26:24;;;;;;;5.00;3.57;;;14.30;99.90;;;;;;4994908;28;20455;-73
2022/06/03 05:29:29;;;;;;;3.50;3.07;;;14.50;99.90;;;;;;5068044;28;20435;-71
2022/06/03 05:32:46;;;;;;;4.17;2.83;;;14.70;99.90;;;;;;5078762;28;20492;-72
2022/06/03 05:35:45;;;;;;;4.33;3.43;;;14.80;99.90;;;;;;5076786;28;20446;-70
2022/06/03 05:39:04;;;;;;;3.80;2.50;;;14.80;99.90;;;;;;5077071;28;20557;-70
2022/06/03 05:44:55;;;;;;;2.60;2.30;;;15.40;99.90;;;;;;5080909;28;20641;-71
2022/06/03 05:47:29;;;;;;;3.40;2.90;;;15.40;99.90;;;;;;5080063;28;20464;-71
2022/06/03 05:50:03;;;;;;;4.00;2.93;;;15.60;99.90;;;;;;5074964;27;20465;-72
2022/06/03 05:52:39;;;;;;;3.13;2.83;;;15.90;99.90;;;;;;5084844;28;20498;-72
2022/06/03 05:55:19;;;;;;;2.70;2.40;;;16.10;99.90;;;;;;5082004;28;20876;-72
2022/06/03 05:58:04;;;;;;;5.93;3.63;;;16.50;99.90;;;;;;5081035;28;20753;-71
2022/06/03 06:00:59;;;;;;;4.30;3.37;;;17.20;99.90;;;;;;5078697;28;20454;-71
2022/06/03 06:03:35;;;;;;;2.80;2.57;;;17.70;99.90;;;;;;5078356;28;20481;-71
2022/06/03 06:06:20;;;;;;;3.50;2.60;;;17.60;99.90;;;;;;5076401;28;20477;-71
2022/06/03 06:08:55;;;;;;;4.80;2.97;;;17.40;99.90;;;;;;5075338;28;20464;-71
2022/06/03 06:11:44;;;;;;;4.20;2.97;;;17.50;99.90;;;;;;5077146;28;20584;-72
2022/06/03 06:14:33;;;;;;;5.07;3.03;;;17.70;99.90;;;;;;5075109;28;20482;-72
2022/06/03 06:17:09;;;;;;;3.70;3.37;;;18.00;99.90;;;;;;5077332;28;20458;-71
2022/06/03 06:19:45;;;;;;;4.00;3.30;;;18.00;99.90;;;;;;5078208;28;20461;-70
2022/06/03 06:22:25;;;;;;;2.63;2.23;;;18.20;99.90;;;;;;5082203;28;20493;-71
2022/06/03 06:25:03;;;;;;;2.70;2.43;;;18.20;99.90;;;;;;5083276;28;20526;-71
2022/06/03 06:27:57;;;;;;;3.17;1.93;;;18.40;99.90;;;;;;5081336;28;20485;-71
2022/06/03 06:30:53;;;;;;;9.20;4.10;;;18.30;99.90;;;;;;5078599;28;20492;-72
2022/06/03 06:33:54;;;;;;;4.70;3.20;;;18.50;99.90;;;;;;5079857;28;21028;-70
2022/06/03 06:36:54;;;;;;;3.73;3.40;;;19.00;99.90;;;;;;5054684;28;20464;-70
2022/06/03 06:39:39;;;;;;;6.20;3.47;;;19.30;99.90;;;;;;5076097;28;20489;-71
2022/06/03 06:42:24;;;;;;;5.50;3.20;;;19.50;99.90;;;;;;5078196;28;20482;-71
2022/06/03 06:45:12;;;;;;;3.67;3.20;;;20.00;99.90;;;;;;5068023;28;20876;-71
2022/06/03 06:47:45;;;;;;;3.60;3.30;;;20.10;99.90;;;;;;5077563;28;20470;-71
2022/06/03 06:50:21;;;;;;;7.97;3.87;;;20.00;99.90;;;;;;5071836;28;20598;-71
2022/06/03 06:52:58;;;;;;;5.87;3.60;;;20.40;99.90;;;;;;5074997;28;20490;-71
2022/06/03 06:55:35;;;;;;;7.90;4.40;;;20.80;99.90;;;;;;5072653;28;20950;-71
2022/06/03 06:58:06;;;;;;;3.40;3.10;;;21.00;99.90;;;;;;5079610;28;20466;-72
2022/06/03 07:00:38;;;;;;;4.53;3.47;;;21.10;99.90;;;;;;5078079;28;20466;-70
2022/06/03 07:03:10;;;;;;;4.47;3.90;;;21.60;99.90;;;;;;5073757;28;20447;-71
2022/06/03 07:05:43;;;;;;;4.80;3.77;;;21.70;99.90;;;;;;5074127;28;20871;-71
2022/06/03 07:08:13;;;;;;;3.90;3.50;;;21.80;99.90;;;;;;5074359;28;20473;-71
2022/06/03 07:10:48;;;;;;;5.30;3.50;;;22.20;99.90;;;;;;5073703;28;20458;-73
2022/06/03 07:13:20;;;;;;;4.50;3.00;;;22.20;99.90;;;;;;5072012;28;20849;-70
2022/06/03 07:16:02;;;;;;;3.70;3.40;;;22.90;99.90;;;;;;5075712;28;20450;-69
2022/06/03 07:21:34;;;;;;;4.47;3.40;;;22.30;99.90;;;;;;5078095;28;20493;-71
2022/06/03 07:24:08;;;;;;;4.40;4.00;;;22.90;99.90;;;;;;5073849;28;20484;-73
2022/06/03 07:26:37;;;;;;;4.20;3.47;;;23.50;99.90;;;;;;5075052;28;20454;-71
2022/06/03 07:29:12;;;;;;;4.47;3.60;;;23.80;99.90;;;;;;5070521;28;20464;-73
2022/06/03 07:31:47;;;;;;;4.40;4.00;;;24.10;99.90;;;;;;5075409;28;20485;-72
2022/06/03 07:34:19;;;;;;;5.33;3.63;;;24.80;99.90;;;;;;5079400;28;21023;-70
2022/06/03 07:36:51;;;;;;;5.07;4.33;;;24.60;99.90;;;;;;5081745;28;20457;-71
2022/06/03 07:39:48;;;;;;;3.90;3.30;;;24.30;99.60;;;;;;5073249;28;20992;-71
2022/06/03 07:42:23;;;;;;;4.10;3.70;;;24.00;99.90;;;;;;5077385;28;20478;-71
2022/06/03 07:45:01;;;;;;;3.90;2.90;;;24.50;99.60;;;;;;5074425;28;20459;-70
2022/06/03 07:47:30;;;;;;;3.37;2.80;;;25.10;99.80;;;;;;5078538;28;20479;-71
2022/06/03 07:49:59;;;;;;;6.73;3.60;;;25.20;97.10;;;;;;5076164;28;20455;-71
2022/06/03 07:52:37;;;;;;;4.17;3.77;;;24.40;97.80;;;;;;5078213;28;21031;-70
2022/06/03 07:55:09;;;;;;;3.63;3.13;;;23.90;97.90;;;;;;5075240;28;20829;-70
2022/06/03 07:57:36;;;;;;;3.60;3.30;;;24.30;98.10;;;;;;5076419;28;20481;-71
2022/06/03 08:00:07;;;;;;;4.40;4.00;;;23.90;98.30;;;;;;5074455;28;20454;-72
2022/06/03 08:02:35;;;;;;;3.97;3.57;;;23.50;98.00;;;;;;5076204;28;20493;-70
2022/06/03 08:05:11;;;;;;;4.67;2.70;;;23.60;98.70;;;;;;5071276;28;20450;-70
2022/06/03 08:13:44;;;;;;;6.20;3.13;;;24.60;97.60;;;;;;5034288;28;20463;-73
2022/06/03 08:16:24;;;;;;;4.97;2.43;;;25.20;96.30;;;;;;5038523;28;20478;-72
2022/06/03 08:18:58;;;;;;;3.73;3.33;;;24.90;95.70;;;;;;5063172;28;20465;-73
2022/06/03 08:21:28;;;;;;;3.17;2.87;;;25.30;95.20;;;;;;5079877;28;20482;-70
2022/06/03 08:23:56;;;;;;;2.97;2.77;;;25.80;95.10;;;;;;5077190;28;20463;-71
2022/06/03 08:26:27;;;;;;;3.73;2.87;;;26.70;94.20;;;;;;5075113;28;20723;-72
2022/06/03 08:29:02;;;;;;;3.17;2.87;;;26.90;94.10;;;;;;5075427;28;20462;-71
2022/06/03 08:31:32;;;;;;;3.93;3.53;;;27.80;94.90;;;;;;5069723;28;20512;-70
2022/06/03 08:34:03;;;;;;;4.20;3.03;;;28.10;92.80;;;;;;5077076;28;20483;-70
2022/06/03 08:36:35;;;;;;;6.23;2.50;;;27.70;93.60;;;;;;5081306;28;20459;-72
2022/06/03 08:39:05;;;;;;;3.80;3.40;;;28.10;92.50;;;;;;5073709;28;20561;-71
2022/06/03 08:41:48;;;;;;;3.27;2.97;;;27.70;93.20;;;;;;5073609;28;20485;-72
2022/06/03 08:44:29;;;;;;;3.40;2.60;;;27.90;92.10;;;;;;5073759;28;20963;-71
2022/06/03 08:47:01;;;;;;;2.87;2.63;;;27.50;90.40;;;;;;5067818;28;20459;-70
2022/06/03 08:49:37;;;;;;;4.80;3.00;;;27.30;92.50;;;;;;5079134;28;20941;-72
2022/06/03 08:52:08;;;;;;;3.23;2.90;;;27.10;93.10;;;;;;5084294;28;20631;-71
2022/06/03 08:54:40;;;;;;;2.50;2.30;;;26.80;91.60;;;;;;5077592;28;20567;-71
2022/06/03 08:57:14;;;;;;;3.63;2.33;;;27.10;91.80;;;;;;5082849;28;20450;-70
2022/06/03 08:59:46;;;;;;;4.03;2.40;;;27.60;89.20;;;;;;5077580;28;20452;-72
2022/06/03 09:02:23;;;;;;;2.00;1.80;;;27.30;90.80;;;;;;5079447;28;21037;-72
2022/06/03 09:05:01;;;;;;;2.60;2.40;;;27.50;88.50;;;;;;5077796;28;20531;-73
2022/06/03 09:07:35;;;;;;;2.07;1.77;;;27.40;90.70;;;;;;5082465;28;20481;-71
2022/06/03 09:10:12;;;;;;;2.07;1.87;;;27.50;87.50;;;;;;5079784;28;20546;-71
2022/06/03 09:12:46;;;;;;;2.97;2.20;;;27.80;89.00;;;;;;5073262;22;20494;-70
2022/06/03 09:15:21;;;;;;;6.43;2.70;;;28.10;86.50;;;;;;5065887;28;20492;-70
2022/06/03 09:17:52;;;;;;;2.40;2.20;;;27.80;86.00;;;;;;5067973;28;20462;-69
2022/06/03 09:20:24;;;;;;;3.10;2.90;;;28.00;85.30;;;;;;5056972;28;20490;-70
2022/06/03 09:22:58;;;;;;;4.53;2.93;;;28.20;83.10;;;;;;5047572;28;20479;-70
2022/06/03 09:25:26;;;;;;;2.77;2.57;;;27.80;83.20;;;;;;5053090;28;20531;-70
2022/06/03 09:27:53;;;;;;;2.90;2.70;;;27.90;82.60;;;;;;5045807;28;20463;-69
2022/06/03 09:30:28;;;;;;;2.83;2.30;;;28.50;80.10;;;;;;5034098;28;20459;-69
2022/06/03 09:32:57;;;;;;;4.93;2.30;;;27.90;81.10;;;;;;5048775;28;20513;-70
2022/06/03 09:35:27;;;;;;;2.43;2.17;;;27.80;81.90;;;;;;5041824;28;20699;-70
2022/06/03 09:37:58;;;;;;;7.93;2.53;;;27.70;81.40;;;;;;5046418;28;20540;-70
2022/06/03 09:40:29;;;;;;;3.60;2.10;;;27.90;81.00;;;;;;5039101;28;20479;-70
2022/06/03 09:43:00;;;;;;;4.83;2.27;;;28.80;80.80;;;;;;5045732;28;20483;-70
2022/06/03 09:45:28;;;;;;;3.27;2.10;;;29.80;78.30;;;;;;5045584;28;20463;-70
2022/06/03 09:47:56;;;;;;;2.57;2.37;;;30.30;78.40;;;;;;5044884;28;20460;-70
2022/06/03 09:50:26;;;;;;;2.50;2.30;;;30.50;72.70;;;;;;5040817;28;20460;-70
2022/06/03 09:53:02;;;;;;;2.60;2.40;;;29.50;73.00;;;;;;5046888;28;21041;-70
2022/06/03 09:55:31;;;;;;;2.53;2.20;;;30.30;73.00;;;;;;5050137;28;20566;-70
2022/06/03 09:58:01;;;;;;;2.73;2.10;;;31.40;71.40;;;;;;5040638;28;20490;-71
2022/06/03 10:00:30;;;;;;;3.63;2.63;;;31.10;68.00;;;;;;5036017;28;20471;-70
2022/06/03 10:02:59;;;;;;;3.50;3.20;;;30.10;69.30;;;;;;5037073;28;20573;-70
2022/06/03 10:05:27;;;;;;;4.90;2.97;;;30.20;67.80;;;;;;5048808;28;20447;-70
2022/06/03 10:08:00;;;;;;;2.70;2.23;;;29.70;68.70;;;;;;5039577;28;20460;-70
2022/06/03 10:13:12;;;;;;;2.50;2.23;;;30.20;65.80;;;;;;5046721;28;20482;-70
2022/06/03 10:15:45;;;;;;;5.20;4.37;;;31.00;66.50;;;;;;5035356;28;20463;-70
2022/06/03 10:18:29;;;;;;;2.70;2.10;;;31.50;64.40;;;;;;5042958;28;20474;-70
2022/06/03 10:20:59;;;;;;;2.27;2.07;;;31.10;64.00;;;;;;5042495;28;20455;-71
2022/06/03 10:23:29;;;;;;;2.10;1.90;;;31.60;63.70;;;;;;5036552;28;20483;-69
2022/06/03 10:25:59;;;;;;;1.80;1.67;;;31.30;58.70;;;;;;5042009;28;20931;-69
2022/06/03 10:28:27;;;;;;;2.57;1.93;;;29.90;59.40;;;;;;5047079;28;20478;-69
2022/06/03 10:31:00;;;;;;;3.10;1.97;;;29.10;60.70;;;;;;5042619;28;20461;-70
2022/06/03 10:33:27;;;;;;;2.40;2.23;;;28.50;60.80;;;;;;5036263;28;20517;-69
2022/06/03 10:35:59;;;;;;;1.80;1.60;;;28.90;60.60;;;;;;5043611;28;20468;-70
2022/06/03 10:38:29;;;;;;;1.83;1.63;;;29.30;59.60;;;;;;5033362;28;20471;-70
2022/06/03 10:40:57;;;;;;;2.40;2.20;;;29.50;60.00;;;;;;5042487;28;20849;-70
2022/06/03 10:43:30;;;;;;;3.63;1.87;;;30.00;59.50;;;;;;5051082;28;20487;-70
2022/06/03 10:46:09;;;;;;;2.60;2.13;;;29.50;60.50;;;;;;5046183;28;20915;-69
2022/06/03 10:48:36;;;;;;;2.03;1.80;;;28.70;58.20;;;;;;5043671;28;20893;-70
2022/06/03 10:51:17;;;;;;;2.70;1.87;;;29.00;58.90;;;;;;5043319;28;20467;-69
2022/06/03 11:02:04;;;;;;;2.10;1.50;;;28.10;59.80;;;;;;5042743;28;20517;-70
2022/06/03 11:04:33;;;;;;;6.77;3.30;;;27.90;61.00;;;;;;5048237;28;20480;-70
2022/06/03 11:07:04;;;;;;;2.60;2.10;;;28.40;61.20;;;;;;5045403;28;20464;-69
2022/06/03 11:09:31;;;;;;;3.10;1.60;;;29.00;60.10;;;;;;5036187;28;20463;-70
2022/06/03 11:12:00;;;;;;;2.17;1.97;;;29.70;59.30;;;;;;5037369;28;20486;-69
2022/06/03 11:14:39;;;;;;;2.07;1.70;;;29.50;57.70;;;;;;5043221;28;22147;-70
2022/06/03 11:17:14;;;;;;;3.20;2.13;;;30.20;59.70;;;;;;5042734;28;20674;-70
2022/06/03 11:19:44;;;;;;;2.13;1.97;;;31.10;56.00;;;;;;5042186;28;20845;-70
2022/06/03 11:22:26;;;;;;;2.10;1.90;;;30.60;54.70;;;;;;5041816;28;20860;-70
2022/06/03 11:24:56;;;;;;;1.97;1.80;;;29.50;55.60;;;;;;5041928;28;20455;-70
2022/06/03 11:27:28;;;;;;;2.37;2.17;;;28.80;58.10;;;;;;5039845;28;20470;-70
2022/06/03 11:29:59;;;;;;;2.10;1.90;;;29.00;59.60;;;;;;5041043;28;20604;-70
2022/06/03 11:32:29;;;;;;;1.80;1.70;;;29.50;58.90;;;;;;5047938;28;20483;-70
2022/06/03 11:35:02;;;;;;;2.13;1.93;;;30.40;58.20;;;;;;5046107;28;20484;-70
2022/06/03 11:37:34;;;;;;;1.87;1.53;;;31.40;57.10;;;;;;5040679;28;20853;-70
2022/06/03 11:40:05;;;;;;;2.23;1.80;;;31.20;55.00;;;;;;5036058;28;20460;-70
2022/06/03 11:42:39;;;;;;;2.27;2.07;;;30.10;57.10;;;;;;5041788;28;20487;-70
2022/06/03 11:45:13;;;;;;;4.23;3.83;;;30.10;57.00;;;;;;5033134;28;21002;-70
2022/06/03 11:47:49;;;;;;;2.93;2.07;;;29.90;57.80;;;;;;5038236;28;21065;-70
2022/06/03 11:50:19;;;;;;;2.63;1.37;;;30.60;57.40;;;;;;5043431;28;20995;-68
2022/06/03 11:52:49;;;;;;;2.10;1.83;;;31.60;53.90;;;;;;5049262;28;20500;-71
2022/06/03 11:55:16;;;;;;;1.90;1.50;;;30.80;54.20;;;;;;5034170;28;20487;-70
2022/06/03 11:57:51;;;;;;;3.93;1.80;;;30.80;54.90;;;;;;5043415;28;20467;-70
2022/06/03 12:00:20;;;;;;;2.37;1.97;;;31.00;54.70;;;;;;5025754;28;20793;-67
2022/06/03 12:03:07;;;;;;;2.03;1.70;;;31.10;55.20;;;;;;5030439;28;20480;-70
2022/06/03 12:05:38;;;;;;;2.80;1.60;;;31.50;56.10;;;;;;5030234;28;20950;-70
2022/06/03 12:08:12;;;;;;;1.97;1.77;;;31.80;55.20;;;;;;5043717;28;20464;-70
2022/06/03 12:10:45;;;;;;;2.10;1.40;;;31.40;52.30;;;;;;5035763;28;20534;-70
2022/06/03 12:13:21;;;;;;;2.10;1.90;;;31.40;52.00;;;;;;5026435;28;21119;-70
2022/06/03 12:16:06;;;;;;;2.47;2.27;;;31.80;53.00;;;;;;5039365;28;20540;-69
2022/06/03 12:19:03;;;;;;;7.80;2.50;;;33.00;53.10;;;;;;5037671;28;20472;-69
2022/06/03 12:21:52;;;;;;;2.13;1.60;;;34.20;50.80;;;;;;5043712;28;20459;-69
2022/06/03 12:24:42;;;;;;;3.93;1.90;;;34.60;49.10;;;;;;5036373;28;20823;-69
2022/06/03 12:27:18;;;;;;;2.80;1.57;;;33.00;50.90;;;;;;5045961;28;20475;-69
2022/06/03 12:29:56;;;;;;;2.97;1.77;;;32.20;50.40;;;;;;5046989;28;20825;-69
2022/06/03 12:32:27;;;;;;;2.27;1.67;;;30.80;51.10;;;;;;5044165;28;20487;-69
2022/06/03 12:35:33;;;;;;;1.90;1.70;;;30.70;52.30;;;;;;5056927;28;20490;-69
2022/06/03 12:38:43;;;;;;;2.37;1.80;;;30.90;52.50;;;;;;5053109;28;20964;-69
2022/06/03 12:41:11;;;;;;;2.33;1.50;;;31.80;52.30;;;;;;5044789;28;20449;-70
2022/06/03 12:43:57;;;;;;;1.90;1.57;;;32.20;51.90;;;;;;5045666;28;21028;-68
2022/06/03 12:46:45;;;;;;;1.67;1.57;;;32.00;51.00;;;;;;5042433;28;20456;-70
2022/06/03 12:49:39;;;;;;;2.00;1.87;;;31.50;54.80;;;;;;5042328;28;20772;-70
2022/06/03 12:52:11;;;;;;;2.37;1.60;;;31.90;51.70;;;;;;5031019;28;20506;-69
2022/06/03 12:54:46;;;;;;;1.70;1.60;;;31.30;51.40;;;;;;5035185;28;20903;-70
2022/06/03 12:57:23;;;;;;;3.70;1.70;;;31.00;52.30;;;;;;5043543;28;20964;-70
2022/06/03 12:59:55;;;;;;;1.90;1.80;;;30.90;53.50;;;;;;5036178;28;20456;-69
2022/06/03 13:02:25;;;;;;;8.80;3.23;;;31.80;52.70;;;;;;5033727;28;20502;-70
2022/06/03 13:05:30;;;;;;;2.40;1.90;;;32.50;52.70;;;;;;5033824;28;20892;-70
2022/06/03 13:08:00;;;;;;;1.80;1.40;;;33.30;50.60;;;;;;5038775;28;20455;-71
2022/06/03 13:10:57;;;;;;;1.80;1.70;;;34.10;50.00;;;;;;5035673;28;20470;-71
2022/06/03 13:13:40;;;;;;;7.00;1.73;;;33.80;49.80;;;;;;5041934;28;20489;-72
2022/06/03 13:16:45;;;;;;;1.70;1.60;;;33.50;50.10;;;;;;5047578;28;20483;-70
2022/06/03 13:19:48;;;;;;;2.63;2.33;;;31.90;50.70;;;;;;5034540;28;20846;-70
2022/06/03 13:22:29;;;;;;;1.70;1.60;;;31.20;51.50;;;;;;5044985;28;20966;-71
2022/06/03 13:25:25;;;;;;;1.90;1.50;;;31.50;51.20;;;;;;5039198;28;20497;-70
2022/06/03 13:28:34;;;;;;;1.83;1.67;;;29.80;51.80;;;;;;5036184;28;20463;-71
2022/06/03 13:31:27;;;;;;;2.47;1.73;;;30.00;53.70;;;;;;5044478;28;20458;-71
2022/06/03 13:34:24;;;;;;;3.00;2.00;;;30.90;51.70;;;;;;5042439;28;20481;-71
2022/06/03 13:37:17;;;;;;;2.10;1.70;;;31.30;52.00;;;;;;5043224;28;20482;-71
2022/06/03 13:40:19;;;;;;;1.83;1.57;;;31.40;51.60;;;;;;5033910;28;20460;-71
2022/06/03 13:43:21;;;;;;;1.80;1.67;;;31.70;51.70;;;;;;5047671;28;20644;-71
2022/06/03 13:46:11;;;;;;;2.40;2.20;;;32.00;51.80;;;;;;5035969;28;20457;-72
2022/06/03 13:48:50;;;;;;;2.53;1.83;;;31.50;51.90;;;;;;5040494;28;20456;-71
2022/06/03 13:51:22;;;;;;;1.93;1.53;;;30.80;52.70;;;;;;5040508;28;20453;-70
2022/06/03 13:53:51;;;;;;;1.90;1.77;;;30.20;52.50;;;;;;5046080;28;20494;-71
2022/06/03 13:56:23;;;;;;;2.03;1.83;;;29.20;54.00;;;;;;5046421;28;20494;-71
2022/06/03 13:58:50;;;;;;;2.53;1.60;;;28.80;53.80;;;;;;5038523;28;20451;-71
2022/06/03 14:01:26;;;;;;;1.70;1.60;;;28.30;54.50;;;;;;5038999;28;20456;-71
2022/06/03 14:03:58;;;;;;;1.80;1.70;;;28.30;56.70;;;;;;5045658;28;20564;-71
2022/06/03 14:06:31;;;;;;;5.70;2.10;;;28.20;55.10;;;;;;5043179;28;20453;-71
2022/06/03 14:09:04;;;;;;;1.97;1.77;;;27.80;57.20;;;;;;5046236;28;20463;-72
2022/06/03 14:11:36;;;;;;;1.90;1.80;;;27.70;58.40;;;;;;5038124;28;20460;-71
2022/06/03 14:14:10;;;;;;;3.43;2.13;;;27.80;58.90;;;;;;5040134;28;20455;-70
2022/06/03 14:16:46;;;;;;;3.80;2.60;;;27.80;61.70;;;;;;5033849;28;20482;-70
2022/06/03 14:19:45;;;;;;;2.27;2.07;;;27.80;62.00;;;;;;5038970;28;20537;-71
2022/06/03 14:22:22;;;;;;;5.60;2.00;;;27.60;64.10;;;;;;5032510;28;20475;-70
2022/06/03 14:24:57;;;;;;;2.27;2.07;;;27.70;65.70;;;;;;5029561;28;20456;-70
2022/06/03 14:27:32;;;;;;;2.87;2.03;;;27.80;64.80;;;;;;5033579;28;20549;-71
2022/06/03 14:30:06;;;;;;;2.43;2.23;;;28.00;66.00;;;;;;5035643;28;21362;-71
2022/06/03 14:32:37;;;;;;;2.27;2.07;;;28.10;65.00;;;;;;5040229;28;20487;-70
2022/06/03 14:35:09;;;;;;;5.33;2.70;;;27.80;64.70;;;;;;5031858;28;20563;-70
2022/06/03 14:37:44;;;;;;;3.90;1.90;;;27.50;68.00;;;;;;5027953;28;20736;-70